Time;durP1;ratioP1;P1;durP2;ratioP2;P2;SDS_P1;SDS_P2;PMS_P1;PMS_P2;Temp;Humidity;BMP_temperature;BMP_pressure;BME280_temperature;BME280_humidity;BME280_pressure;Samples;Min_cycle;Max_cycle;Signal;HPM_P1;HPM_P2
2022/07/24 00:02:12;;;;;;;14.18;12.77;;;;;;;19.04;65.92;101831.34;4989764;28;20423;-79
2022/07/24 00:04:38;;;;;;;14.18;12.68;;;;;;;18.99;65.92;101833.59;4986009;28;20022;-80
2022/07/24 00:07:03;;;;;;;14.20;12.90;;;;;;;18.96;65.82;101818.13;4978094;28;20096;-78
2022/07/24 00:09:29;;;;;;;14.02;12.73;;;;;;;18.99;65.80;101828.34;4989752;28;20034;-79
2022/07/24 00:11:54;;;;;;;14.35;12.48;;;;;;;18.96;65.76;101823.38;4989182;28;20030;-80
2022/07/24 00:14:20;;;;;;;14.40;12.95;;;;;;;18.95;65.50;101827.00;4989219;28;20050;-79
2022/07/24 00:16:45;;;;;;;14.48;13.07;;;;;;;18.94;65.35;101819.28;4988137;28;20029;-79
2022/07/24 00:19:10;;;;;;;14.50;13.10;;;;;;;18.92;65.58;101813.34;4987906;28;20053;-79
2022/07/24 00:21:36;;;;;;;14.52;13.23;;;;;;;18.85;65.93;101810.50;4988221;28;20039;-77
2022/07/24 00:24:01;;;;;;;14.90;13.40;;;;;;;18.87;65.71;101813.81;4988409;28;20018;-79
2022/07/24 00:26:26;;;;;;;14.70;13.30;;;;;;;18.78;66.37;101825.25;4989084;28;20105;-78
2022/07/24 00:28:52;;;;;;;15.70;14.20;;;;;;;18.81;65.75;101819.69;4988884;28;20105;-79
2022/07/24 00:31:17;;;;;;;14.95;13.65;;;;;;;18.78;65.56;101820.81;4989312;28;20463;-78
2022/07/24 00:33:43;;;;;;;15.40;13.90;;;;;;;18.74;66.48;101829.16;4988487;28;20458;-78
2022/07/24 00:36:08;;;;;;;15.98;14.38;;;;;;;18.66;66.22;101810.69;4988787;28;20104;-78
2022/07/24 00:38:34;;;;;;;16.63;15.02;;;;;;;18.68;66.45;101821.91;4988907;28;20478;-78
2022/07/24 00:40:59;;;;;;;16.05;14.38;;;;;;;18.71;66.53;101825.06;4988570;28;20479;-78
2022/07/24 00:43:25;;;;;;;16.27;14.68;;;;;;;18.63;66.72;101821.50;4988800;28;20437;-78
2022/07/24 00:45:50;;;;;;;16.75;15.15;;;;;;;18.64;66.63;101825.75;4989041;28;20027;-78
2022/07/24 00:48:16;;;;;;;16.52;14.98;;;;;;;18.60;66.76;101827.91;4989077;28;20057;-79
2022/07/24 00:50:42;;;;;;;16.13;14.70;;;;;;;18.57;66.46;101818.50;4988492;28;20475;-79
2022/07/24 00:53:08;;;;;;;16.77;15.00;;;;;;;18.47;66.99;101820.41;4988822;28;20112;-78
2022/07/24 00:55:34;;;;;;;16.75;15.10;;;;;;;18.42;67.17;101814.78;4988031;28;20113;-78
2022/07/24 00:58:00;;;;;;;16.50;15.00;;;;;;;18.39;67.06;101804.56;4989261;28;20034;-79
2022/07/24 01:00:25;;;;;;;16.98;15.43;;;;;;;18.44;66.95;101823.34;4987721;28;20026;-78
2022/07/24 01:02:51;;;;;;;17.40;15.80;;;;;;;18.37;67.08;101811.78;4988459;28;20532;-79
2022/07/24 01:05:17;;;;;;;17.42;15.82;;;;;;;18.43;67.35;101816.44;4987892;28;20037;-78
2022/07/24 01:07:42;;;;;;;17.33;15.77;;;;;;;18.39;67.34;101811.63;4988606;28;20073;-78
2022/07/24 01:10:08;;;;;;;17.60;16.02;;;;;;;18.37;66.98;101816.22;4988023;28;20372;-79
2022/07/24 01:12:35;;;;;;;17.73;15.98;;;;;;;18.36;67.07;101820.66;4982790;28;20034;-79
2022/07/24 01:15:01;;;;;;;18.63;16.83;;;;;;;18.33;67.11;101807.81;4988213;28;20046;-78
2022/07/24 01:17:31;;;;;;;17.63;15.90;;;;;;;18.29;67.26;101811.72;4988203;28;20037;-79
2022/07/24 01:19:57;;;;;;;17.75;16.20;;;;;;;18.17;67.84;101805.03;4988543;28;20146;-79
2022/07/24 01:22:24;;;;;;;19.13;17.30;;;;;;;18.14;67.91;101800.09;4985119;28;20068;-79
2022/07/24 01:24:51;;;;;;;19.07;17.17;;;;;;;18.21;67.67;101811.66;5002828;28;20034;-78
2022/07/24 01:27:17;;;;;;;18.30;16.50;;;;;;;18.22;67.66;101802.78;4986725;28;20053;-78
2022/07/24 01:29:43;;;;;;;18.95;17.08;;;;;;;18.20;67.53;101795.06;4987348;28;20030;-79
2022/07/24 01:32:08;;;;;;;18.83;17.13;;;;;;;18.08;67.87;101785.78;4988749;28;20291;-78
2022/07/24 01:34:34;;;;;;;18.83;16.92;;;;;;;18.10;67.33;101793.50;4987755;28;20045;-78
2022/07/24 01:36:59;;;;;;;18.58;16.95;;;;;;;18.01;67.31;101790.00;4987823;28;20446;-78
2022/07/24 01:39:26;;;;;;;19.00;17.20;;;;;;;18.02;67.71;101781.97;4987083;28;20050;-78
2022/07/24 01:41:51;;;;;;;18.95;17.15;;;;;;;18.02;67.64;101784.59;4986655;28;20088;-78
2022/07/24 01:44:20;;;;;;;19.20;17.35;;;;;;;17.99;67.59;101776.16;4987079;28;20037;-78
2022/07/24 01:46:45;;;;;;;19.13;17.30;;;;;;;18.00;67.22;101778.63;5002281;28;20026;-79
2022/07/24 01:49:11;;;;;;;18.77;16.98;;;;;;;17.97;67.40;101784.22;4987728;28;20033;-78
2022/07/24 01:51:36;;;;;;;17.90;16.30;;;;;;;17.87;67.89;101777.38;4987398;28;20069;-76
2022/07/24 01:54:02;;;;;;;19.15;17.33;;;;;;;17.96;67.58;101790.44;4987121;28;20113;-79
2022/07/24 01:56:29;;;;;;;18.60;16.70;;;;;;;17.93;67.96;101782.84;4987286;28;20034;-79
2022/07/24 01:58:54;;;;;;;19.35;17.40;;;;;;;17.87;68.19;101772.94;4989526;28;20497;-78
2022/07/24 02:01:20;;;;;;;18.77;17.08;;;;;;;17.88;68.29;101771.16;4987756;28;20014;-79
2022/07/24 02:03:46;;;;;;;19.00;17.20;;;;;;;17.83;67.96;101766.34;4987691;28;20043;-78
2022/07/24 02:06:12;;;;;;;19.15;17.35;;;;;;;17.76;68.17;101765.28;4986981;28;20030;-78
2022/07/24 02:08:37;;;;;;;19.25;17.45;;;;;;;17.77;67.93;101766.94;4986365;28;20022;-78
2022/07/24 02:11:03;;;;;;;19.58;17.88;;;;;;;17.74;68.44;101772.50;4985341;28;20065;-79
2022/07/24 02:13:28;;;;;;;19.13;17.33;;;;;;;17.75;68.45;101769.72;4986702;28;20566;-79
2022/07/24 02:15:54;;;;;;;20.27;18.38;;;;;;;17.61;69.60;101774.63;4987020;28;20073;-78
2022/07/24 02:18:19;;;;;;;20.40;18.50;;;;;;;17.58;69.38;101774.91;4987415;28;20145;-78
2022/07/24 02:20:44;;;;;;;20.63;18.65;;;;;;;17.40;69.88;101780.97;4986491;28;20109;-79
2022/07/24 02:23:10;;;;;;;19.63;17.83;;;;;;;17.35;70.20;101788.44;4987892;28;20270;-79
2022/07/24 02:25:35;;;;;;;18.70;17.00;;;;;;;17.31;70.70;101787.06;4986951;28;20029;-78
2022/07/24 02:28:01;;;;;;;19.80;18.00;;;;;;;17.35;69.94;101793.69;4987232;28;20140;-79
2022/07/24 02:30:26;;;;;;;20.27;18.48;;;;;;;17.23;71.24;101794.84;4987149;28;20122;-79
2022/07/24 02:32:52;;;;;;;20.08;18.23;;;;;;;17.27;71.01;101796.22;4986410;28;20459;-78
2022/07/24 02:35:17;;;;;;;20.02;18.23;;;;;;;17.20;71.23;101780.25;4987784;28;20041;-79
2022/07/24 02:37:44;;;;;;;19.48;17.73;;;;;;;17.16;71.63;101784.13;4986621;28;20127;-79
2022/07/24 02:40:10;;;;;;;20.40;18.50;;;;;;;17.23;71.34;101794.84;5002796;28;20030;-78
2022/07/24 02:42:37;;;;;;;20.60;18.50;;;;;;;17.15;72.09;101794.75;4984881;28;20019;-78
2022/07/24 02:45:04;;;;;;;20.20;18.20;;;;;;;17.13;72.01;101786.19;4987079;28;20026;-78
2022/07/24 02:47:29;;;;;;;21.17;19.17;;;;;;;17.17;71.81;101787.56;4987369;28;20046;-78
2022/07/24 02:49:55;;;;;;;22.15;20.15;;;;;;;17.18;72.08;101789.22;4987333;28;20111;-78
2022/07/24 02:52:20;;;;;;;21.88;19.88;;;;;;;17.09;72.92;101774.31;4986459;28;20052;-78
2022/07/24 02:54:45;;;;;;;22.40;20.42;;;;;;;17.20;72.12;101776.75;4985684;28;20077;-78
2022/07/24 02:57:11;;;;;;;22.90;20.90;;;;;;;17.26;71.43;101773.56;4986278;28;20054;-78
2022/07/24 02:59:36;;;;;;;22.70;20.60;;;;;;;17.29;71.57;101762.78;4986999;28;20043;-79
2022/07/24 03:02:02;;;;;;;22.67;20.55;;;;;;;17.30;72.28;101769.69;4987073;28;20474;-78
2022/07/24 03:04:27;;;;;;;23.35;21.05;;;;;;;17.30;72.39;101764.44;4987384;28;20038;-78
2022/07/24 03:06:53;;;;;;;22.40;20.25;;;;;;;17.33;71.79;101769.41;4987654;28;20026;-79
2022/07/24 03:09:19;;;;;;;22.35;20.42;;;;;;;17.27;72.24;101754.25;4989294;28;20040;-78
2022/07/24 03:11:45;;;;;;;22.58;20.52;;;;;;;17.33;72.19;101769.41;4987894;28;20443;-78
2022/07/24 03:14:10;;;;;;;23.05;20.90;;;;;;;17.23;72.66;101758.97;4987233;28;20053;-78
2022/07/24 03:16:37;;;;;;;22.58;20.50;;;;;;;17.25;72.72;101766.66;4986882;28;20514;-79
2022/07/24 03:19:02;;;;;;;22.60;20.55;;;;;;;17.23;73.00;101763.38;4987611;28;20061;-79
2022/07/24 03:21:28;;;;;;;22.63;20.73;;;;;;;17.23;72.95;101772.06;4990034;28;20026;-77
2022/07/24 03:23:53;;;;;;;23.33;21.02;;;;;;;17.15;73.04;101760.69;4990786;28;20030;-78
2022/07/24 03:26:18;;;;;;;22.63;20.58;;;;;;;17.17;73.20;101769.22;4990092;28;20100;-78
2022/07/24 03:28:44;;;;;;;23.02;20.83;;;;;;;17.07;73.82;101769.25;5007367;28;20054;-78
2022/07/24 03:31:09;;;;;;;22.20;20.10;;;;;;;17.01;73.47;101761.13;4991962;28;20117;-79
2022/07/24 03:33:34;;;;;;;20.73;18.83;;;;;;;17.10;72.92;101748.00;4988956;28;20030;-80
2022/07/24 03:36:00;;;;;;;21.02;19.15;;;;;;;17.14;73.32;101751.13;4985047;28;20030;-77
2022/07/24 03:38:26;;;;;;;20.25;18.35;;;;;;;17.07;73.79;101763.19;4994785;28;20034;-78
2022/07/24 03:40:51;;;;;;;20.83;18.92;;;;;;;17.06;73.49;101762.34;4993833;28;20030;-78
2022/07/24 03:43:17;;;;;;;20.58;18.67;;;;;;;17.17;73.15;101743.81;4994391;28;20022;-78
2022/07/24 03:45:43;;;;;;;20.20;18.30;;;;;;;17.20;73.00;101753.16;4993550;28;20023;-79
2022/07/24 03:48:09;;;;;;;20.95;18.92;;;;;;;17.17;73.64;101748.22;4996335;28;20366;-78
2022/07/24 03:50:34;;;;;;;19.65;17.73;;;;;;;17.14;73.62;101753.75;4994895;28;20104;-79
2022/07/24 03:53:00;;;;;;;19.45;17.65;;;;;;;17.12;73.61;101739.97;4992845;28;20130;-78
2022/07/24 03:55:25;;;;;;;20.75;18.85;;;;;;;17.13;73.67;101741.63;4992400;28;20459;-78
2022/07/24 03:57:51;;;;;;;21.35;19.45;;;;;;;17.16;74.06;101751.84;4990663;28;20026;-77
2022/07/24 04:00:16;;;;;;;21.90;19.90;;;;;;;17.16;73.91;101743.97;4991190;28;20026;-79
2022/07/24 04:02:42;;;;;;;21.08;19.20;;;;;;;17.16;74.12;101754.44;4988905;28;20372;-78
2022/07/24 04:05:08;;;;;;;22.67;20.38;;;;;;;17.08;74.33;101756.97;4988988;28;20011;-78
2022/07/24 04:07:38;;;;;;;22.40;20.40;;;;;;;16.95;75.11;101755.50;4990207;28;20030;-77
2022/07/24 04:10:05;;;;;;;23.23;21.05;;;;;;;17.02;74.91;101760.16;4987469;28;20535;-78
2022/07/24 04:12:30;;;;;;;22.80;20.70;;;;;;;17.06;75.21;101759.72;4988431;28;20478;-79
2022/07/24 04:14:56;;;;;;;23.77;21.67;;;;;;;17.08;75.32;101755.16;5003755;28;20038;-79
2022/07/24 04:17:21;;;;;;;23.33;21.33;;;;;;;17.06;75.22;101745.81;4989775;28;20475;-79
2022/07/24 04:19:46;;;;;;;23.98;21.77;;;;;;;17.12;75.22;101745.22;4989457;28;20109;-79
2022/07/24 04:22:12;;;;;;;25.70;23.33;;;;;;;17.15;75.33;101753.63;4989172;28;20105;-78
2022/07/24 04:24:37;;;;;;;25.00;22.80;;;;;;;17.17;74.79;101758.72;5004196;28;20026;-78
2022/07/24 04:27:02;;;;;;;25.20;22.90;;;;;;;17.16;75.26;101746.59;4989201;28;20474;-78
2022/07/24 04:29:28;;;;;;;26.15;23.85;;;;;;;17.11;75.70;101754.06;5003923;28;20493;-78
2022/07/24 04:31:53;;;;;;;25.83;23.50;;;;;;;17.09;76.50;101766.47;4988720;28;20031;-78
2022/07/24 04:34:19;;;;;;;27.77;25.15;;;;;;;17.11;75.62;101759.31;4988841;28;20392;-78
2022/07/24 04:36:44;;;;;;;27.40;24.90;;;;;;;17.10;75.62;101752.41;4987821;28;20034;-78
2022/07/24 04:39:09;;;;;;;27.05;24.65;;;;;;;17.18;75.96;101768.22;4994535;28;20026;-78
2022/07/24 04:41:35;;;;;;;27.60;25.10;;;;;;;17.04;76.73;101773.97;4988492;28;20032;-78
2022/07/24 04:44:00;;;;;;;27.95;25.48;;;;;;;17.19;76.14;101772.50;4989579;28;20022;-78
2022/07/24 04:46:27;;;;;;;27.92;25.38;;;;;;;17.14;76.33;101764.25;4988051;28;20030;-78
2022/07/24 04:48:52;;;;;;;27.42;25.02;;;;;;;17.24;76.00;101778.13;4980887;28;20022;-78
2022/07/24 04:51:17;;;;;;;26.95;24.45;;;;;;;17.19;75.81;101780.38;4989018;28;20402;-78
2022/07/24 04:53:43;;;;;;;27.88;25.38;;;;;;;17.28;75.83;101770.81;4988076;28;20359;-78
2022/07/24 04:56:08;;;;;;;28.92;26.23;;;;;;;17.32;75.83;101772.16;4988512;28;20034;-78
2022/07/24 04:58:34;;;;;;;28.90;26.20;;;;;;;17.35;76.43;101767.44;4987097;28;20061;-78
2022/07/24 05:01:00;;;;;;;29.05;26.35;;;;;;;17.31;76.20;101771.34;4988671;28;20522;-78
2022/07/24 05:03:25;;;;;;;28.65;25.90;;;;;;;17.40;75.33;101757.34;4988817;28;20431;-77
2022/07/24 05:05:50;;;;;;;28.92;26.20;;;;;;;17.36;75.80;101763.84;4987166;28;20033;-78
2022/07/24 05:08:16;;;;;;;29.08;26.38;;;;;;;17.39;75.80;101757.50;5003011;28;20026;-78
2022/07/24 05:10:41;;;;;;;29.75;27.05;;;;;;;17.40;75.96;101762.59;4986589;28;20113;-78
2022/07/24 05:13:07;;;;;;;30.05;27.25;;;;;;;17.44;75.48;101758.72;4988426;28;20027;-77
2022/07/24 05:15:32;;;;;;;29.73;26.98;;;;;;;17.49;75.70;101759.09;4988094;28;20498;-77
2022/07/24 05:17:58;;;;;;;29.88;27.13;;;;;;;17.51;76.19;101764.19;4988628;28;20030;-76
2022/07/24 05:20:23;;;;;;;30.58;27.65;;;;;;;17.49;76.02;101758.25;4988030;28;20080;-76
2022/07/24 05:22:49;;;;;;;30.27;27.50;;;;;;;17.49;76.09;101753.88;4987975;28;20037;-77
2022/07/24 05:25:15;;;;;;;30.02;27.33;;;;;;;17.56;76.09;101753.28;4988038;28;20105;-77
2022/07/24 05:27:40;;;;;;;31.48;28.38;;;;;;;17.57;75.97;101760.16;4987449;28;20038;-77
2022/07/24 05:30:06;;;;;;;30.45;27.63;;;;;;;17.67;76.20;101771.41;4988134;28;20061;-77
2022/07/24 05:32:31;;;;;;;30.23;27.40;;;;;;;17.73;75.89;101770.84;5003158;28;20084;-77
2022/07/24 05:34:57;;;;;;;29.70;26.80;;;;;;;17.70;76.74;101776.34;4987342;28;20034;-77
2022/07/24 05:37:22;;;;;;;29.77;26.92;;;;;;;17.63;77.54;101781.38;4988075;28;20106;-77
2022/07/24 05:39:48;;;;;;;28.08;25.45;;;;;;;17.70;76.36;101765.84;4985563;28;20026;-78
2022/07/24 05:42:13;;;;;;;27.67;25.17;;;;;;;17.70;76.35;101765.84;4987849;28;20065;-78
2022/07/24 05:44:39;;;;;;;28.63;25.75;;;;;;;17.76;76.34;101783.66;4986568;28;20014;-77
2022/07/24 05:47:04;;;;;;;26.88;24.38;;;;;;;17.73;76.58;101781.34;4987589;28;20038;-77
2022/07/24 05:49:30;;;;;;;26.17;23.48;;;;;;;17.83;76.37;101771.59;4985582;28;20026;-77
2022/07/24 05:51:55;;;;;;;25.42;23.13;;;;;;;17.85;76.47;101785.41;5002282;28;20111;-78
2022/07/24 05:54:21;;;;;;;25.20;22.80;;;;;;;17.89;75.33;101785.91;4987616;28;20022;-77
2022/07/24 05:56:46;;;;;;;24.10;21.65;;;;;;;17.91;74.64;101784.81;4988190;28;20036;-77
2022/07/24 05:59:11;;;;;;;24.08;21.70;;;;;;;17.90;74.80;101801.53;4987125;28;20018;-77
2022/07/24 06:01:37;;;;;;;23.92;21.48;;;;;;;17.89;74.81;101778.91;4987279;28;20434;-78
2022/07/24 06:04:02;;;;;;;23.45;21.13;;;;;;;18.04;74.05;101782.63;4987103;28;20023;-76
2022/07/24 06:06:28;;;;;;;24.92;22.52;;;;;;;18.11;74.15;101788.09;4987857;28;20072;-77
2022/07/24 06:08:53;;;;;;;23.25;21.05;;;;;;;18.14;74.96;101789.59;4987463;28;20459;-77
2022/07/24 06:11:19;;;;;;;25.05;22.40;;;;;;;18.15;74.19;101788.63;4985959;28;20027;-77
2022/07/24 06:13:45;;;;;;;23.63;21.38;;;;;;;18.30;73.39;101792.38;4983185;28;20489;-77
2022/07/24 06:16:11;;;;;;;23.33;21.13;;;;;;;18.39;73.56;101794.06;4987788;28;20170;-77
2022/07/24 06:18:36;;;;;;;22.98;20.80;;;;;;;18.48;72.73;101782.66;4986778;28;20030;-78
2022/07/24 06:21:02;;;;;;;23.55;21.30;;;;;;;18.49;73.13;101783.47;4985063;28;20092;-78
2022/07/24 06:23:28;;;;;;;22.27;20.17;;;;;;;18.57;72.86;101781.72;4986712;28;20072;-77
2022/07/24 06:25:53;;;;;;;21.10;19.10;;;;;;;18.63;72.57;101784.72;4985976;28;20097;-78
2022/07/24 06:28:19;;;;;;;20.30;18.10;;;;;;;18.74;71.47;101789.75;4987418;28;20117;-77
2022/07/24 06:30:45;;;;;;;18.83;16.92;;;;;;;18.72;70.91;101787.28;4986863;28;20050;-77
2022/07/24 06:33:10;;;;;;;19.23;17.42;;;;;;;18.74;70.79;101793.19;4985216;28;20077;-76
2022/07/24 06:35:35;;;;;;;19.33;17.42;;;;;;;18.84;70.26;101793.91;4986212;28;20065;-77
2022/07/24 06:38:01;;;;;;;18.77;16.98;;;;;;;19.01;70.30;101789.56;4986685;28;20045;-77
2022/07/24 06:40:27;;;;;;;19.70;17.80;;;;;;;18.92;70.26;101774.72;4986455;28;20051;-77
2022/07/24 06:42:53;;;;;;;19.92;17.92;;;;;;;19.04;70.08;101784.00;4986625;28;20038;-76
2022/07/24 06:45:19;;;;;;;20.50;18.40;;;;;;;19.15;69.99;101784.69;4986686;28;20026;-78
2022/07/24 06:47:44;;;;;;;19.73;17.70;;;;;;;19.21;69.35;101789.31;4986539;28;20045;-76
2022/07/24 06:50:11;;;;;;;19.65;17.65;;;;;;;19.30;69.73;101793.63;4986607;28;20580;-77
2022/07/24 06:52:37;;;;;;;20.65;18.45;;;;;;;19.49;69.94;101782.84;4986499;28;20034;-76
2022/07/24 06:55:03;;;;;;;19.40;17.08;;;;;;;19.57;69.01;101780.25;4988804;28;20018;-76
2022/07/24 06:57:28;;;;;;;18.85;16.83;;;;;;;19.74;68.49;101780.31;4984010;28;20035;-77
2022/07/24 06:59:54;;;;;;;20.27;18.25;;;;;;;19.71;68.39;101780.63;4988729;28;20034;-77
2022/07/24 07:02:20;;;;;;;20.35;17.42;;;;;;;19.90;67.94;101775.09;4990933;28;20030;-76
2022/07/24 07:04:47;;;;;;;19.20;17.30;;;;;;;19.98;67.34;101761.91;4990434;28;20401;-77
2022/07/24 07:07:12;;;;;;;19.17;17.38;;;;;;;20.07;65.92;101776.75;4990250;28;20022;-77
2022/07/24 07:09:37;;;;;;;19.17;17.25;;;;;;;20.22;65.07;101778.69;4990726;28;20488;-77
2022/07/24 07:12:04;;;;;;;19.55;17.55;;;;;;;20.17;65.80;101772.09;5000602;28;20064;-77
2022/07/24 07:14:29;;;;;;;19.00;17.10;;;;;;;20.31;64.16;101783.00;4989562;28;20442;-77
2022/07/24 07:16:55;;;;;;;18.65;16.67;;;;;;;20.32;65.12;101789.91;4989321;28;20030;-78
2022/07/24 07:19:20;;;;;;;18.08;16.27;;;;;;;20.38;64.83;101783.97;4989714;28;20145;-77
2022/07/24 07:21:45;;;;;;;19.13;17.23;;;;;;;20.46;65.31;101791.88;5004680;28;20222;-78
2022/07/24 07:24:11;;;;;;;18.90;17.00;;;;;;;20.45;64.64;101792.84;4998539;28;20042;-78
2022/07/24 07:26:36;;;;;;;17.02;15.27;;;;;;;20.59;64.35;101792.22;4983793;28;20037;-77
2022/07/24 07:29:02;;;;;;;17.45;15.80;;;;;;;20.65;64.10;101802.09;4981532;28;20038;-77
2022/07/24 07:31:27;;;;;;;16.63;14.93;;;;;;;20.77;64.27;101793.84;4989430;28;20033;-77
2022/07/24 07:33:53;;;;;;;15.80;14.27;;;;;;;20.88;63.39;101788.19;4989744;28;20034;-77
2022/07/24 07:36:18;;;;;;;14.88;13.27;;;;;;;20.89;62.41;101793.28;4989616;28;20224;-77
2022/07/24 07:38:44;;;;;;;15.48;13.88;;;;;;;21.07;62.92;101793.06;4989480;28;20514;-77
2022/07/24 07:41:09;;;;;;;13.68;12.23;;;;;;;21.16;61.68;101789.41;4987079;28;20043;-78
2022/07/24 07:43:35;;;;;;;13.40;11.63;;;;;;;21.13;59.35;101800.31;5003189;28;20025;-77
2022/07/24 07:46:00;;;;;;;12.68;11.38;;;;;;;21.30;59.73;101795.00;4985552;28;20033;-77
2022/07/24 07:48:26;;;;;;;12.00;10.20;;;;;;;21.37;59.91;101794.13;4989790;28;20062;-79
2022/07/24 07:50:52;;;;;;;14.02;10.43;;;;;;;21.54;59.20;101792.22;4986644;28;20427;-78
2022/07/24 07:53:18;;;;;;;12.48;11.20;;;;;;;21.44;58.59;101796.88;4984297;28;20477;-78
2022/07/24 07:55:44;;;;;;;12.60;11.30;;;;;;;21.66;59.22;101790.81;4988040;28;20046;-78
2022/07/24 07:58:09;;;;;;;12.68;11.15;;;;;;;21.66;58.74;101796.09;4988994;28;20022;-78
2022/07/24 08:00:36;;;;;;;11.45;10.13;;;;;;;21.78;58.77;101793.06;4974797;28;20030;-78
2022/07/24 08:03:01;;;;;;;11.65;10.32;;;;;;;21.93;58.59;101796.59;4989483;28;20520;-78
2022/07/24 08:05:27;;;;;;;11.15;9.57;;;;;;;21.80;57.73;101780.53;4988192;28;20034;-77
2022/07/24 08:07:53;;;;;;;11.05;9.55;;;;;;;21.95;58.03;101784.03;4987631;28;20054;-79
2022/07/24 08:10:18;;;;;;;10.70;9.60;;;;;;;22.07;58.33;101787.91;4989511;28;20038;-78
2022/07/24 08:12:44;;;;;;;10.10;8.38;;;;;;;22.24;56.39;101786.78;4988519;28;20105;-78
2022/07/24 08:15:10;;;;;;;10.65;7.97;;;;;;;22.25;57.37;101780.53;5004166;28;20422;-78
2022/07/24 08:17:35;;;;;;;9.85;7.97;;;;;;;22.39;57.15;101791.31;4988794;28;20018;-77
2022/07/24 08:20:01;;;;;;;9.70;8.18;;;;;;;22.42;56.22;101772.44;4988953;28;20033;-76
2022/07/24 08:22:26;;;;;;;9.18;8.07;;;;;;;22.63;55.37;101788.41;4988506;28;20058;-76
2022/07/24 08:24:52;;;;;;;10.68;8.80;;;;;;;22.52;55.70;101781.75;4988717;28;20479;-77
2022/07/24 08:27:17;;;;;;;9.77;8.57;;;;;;;22.63;55.58;101780.47;4989105;28;20030;-77
2022/07/24 08:29:42;;;;;;;9.73;8.55;;;;;;;22.78;55.59;101791.09;5003884;28;20018;-78
2022/07/24 08:32:08;;;;;;;8.88;7.30;;;;;;;22.95;55.49;101781.16;4988899;28;20117;-77
2022/07/24 08:34:33;;;;;;;8.18;6.75;;;;;;;23.03;54.65;101789.00;4988406;28;20663;-77
2022/07/24 08:36:59;;;;;;;8.20;6.85;;;;;;;23.17;54.06;101780.25;4987403;28;20037;-77
2022/07/24 08:39:24;;;;;;;8.55;6.55;;;;;;;23.23;54.69;101781.31;4988955;28;20014;-78
2022/07/24 08:41:49;;;;;;;8.20;6.43;;;;;;;23.31;54.53;101776.72;4988794;28;20030;-76
2022/07/24 08:44:15;;;;;;;6.90;5.78;;;;;;;23.38;53.53;101773.34;4987185;28;20026;-77
2022/07/24 08:46:41;;;;;;;7.25;5.13;;;;;;;23.52;53.39;101783.91;4988890;28;20041;-77
2022/07/24 08:49:11;;;;;;;7.78;5.80;;;;;;;23.44;53.57;101788.47;4988271;28;20034;-77
2022/07/24 08:51:38;;;;;;;8.50;6.40;;;;;;;23.72;52.53;101778.81;4982123;28;20040;-78
2022/07/24 08:54:04;;;;;;;6.93;5.65;;;;;;;23.77;52.69;101787.03;4988447;28;20030;-80
2022/07/24 08:56:30;;;;;;;7.50;5.40;;;;;;;23.87;52.35;101786.72;4989101;28;20033;-78
2022/07/24 08:58:55;;;;;;;7.18;5.80;;;;;;;23.88;53.71;101782.25;4986667;28;20037;-75
2022/07/24 09:01:21;;;;;;;10.88;6.00;;;;;;;23.94;53.23;101776.19;4988726;28;20026;-75
2022/07/24 09:03:47;;;;;;;7.00;5.15;;;;;;;24.10;52.85;101782.03;4987183;28;20084;-76
2022/07/24 09:06:14;;;;;;;6.60;5.30;;;;;;;24.21;51.64;101778.06;4988121;28;20110;-76
2022/07/24 09:08:41;;;;;;;7.25;5.25;;;;;;;24.20;51.19;101776.44;4987783;28;20028;-75
2022/07/24 09:11:09;;;;;;;6.55;5.13;;;;;;;24.29;51.67;101769.94;4988637;28;20046;-76
2022/07/24 09:16:22;;;;;;;7.07;5.47;;;;;;;24.39;50.93;101763.53;4986306;28;20540;-76
2022/07/24 09:18:48;;;;;;;8.38;5.72;;;;;;;24.34;51.10;101756.97;4987528;28;20438;-75
2022/07/24 09:21:15;;;;;;;6.95;5.10;;;;;;;24.70;50.70;101765.75;5003234;28;20376;-77
2022/07/24 09:23:41;;;;;;;7.03;5.35;;;;;;;24.52;50.08;101768.91;4986316;28;20034;-75
2022/07/24 09:26:06;;;;;;;7.00;4.70;;;;;;;24.91;49.66;101757.72;4987569;28;20026;-76
2022/07/24 09:28:50;;;;;;;5.18;4.25;;;;;;;24.86;51.61;101760.94;4987883;28;20026;-76
2022/07/24 09:31:16;;;;;;;6.50;4.45;;;;;;;24.80;50.36;101751.13;4984238;28;20511;-76
2022/07/24 09:33:41;;;;;;;5.78;4.30;;;;;;;25.16;49.66;101750.06;4987492;28;20018;-78
2022/07/24 09:36:16;;;;;;;5.22;4.28;;;;;;;25.11;49.99;101748.00;4987389;28;20048;-76
2022/07/24 09:38:50;;;;;;;4.38;3.45;;;;;;;25.22;49.49;101749.28;4977890;28;20375;-77
2022/07/24 09:41:23;;;;;;;5.70;3.90;;;;;;;25.25;49.34;101754.19;4986897;28;20034;-76
2022/07/24 09:44:02;;;;;;;5.55;3.90;;;;;;;25.32;50.15;101749.72;4987028;28;20033;-77
2022/07/24 09:46:28;;;;;;;5.93;3.60;;;;;;;25.36;49.30;101744.84;4986860;28;20029;-76
2022/07/24 09:48:57;;;;;;;4.35;3.35;;;;;;;25.71;47.83;101748.16;4987963;28;20378;-77
2022/07/24 09:51:24;;;;;;;5.88;3.60;;;;;;;25.73;47.29;101740.81;4987040;28;20037;-77
2022/07/24 09:53:58;;;;;;;4.70;3.40;;;;;;;25.91;46.93;101746.34;4986885;28;20026;-77
2022/07/24 09:56:24;;;;;;;6.18;3.53;;;;;;;25.93;46.42;101752.31;4986174;28;20026;-77
2022/07/24 09:58:52;;;;;;;4.57;3.20;;;;;;;25.71;46.98;101748.16;4985698;28;20370;-77
2022/07/24 10:01:21;;;;;;;4.38;3.30;;;;;;;25.92;48.18;101742.69;4986360;28;20217;-77
2022/07/24 10:03:48;;;;;;;5.38;3.20;;;;;;;26.10;47.20;101747.41;4987289;28;20034;-77
2022/07/24 10:06:17;;;;;;;4.00;3.08;;;;;;;26.20;45.98;101741.66;4985181;28;20027;-76
2022/07/24 10:08:44;;;;;;;4.28;3.33;;;;;;;26.14;46.89;101734.50;4986858;28;20037;-77
2022/07/24 10:11:11;;;;;;;4.95;3.13;;;;;;;26.36;45.68;101741.22;4985741;28;20113;-78
2022/07/24 10:13:37;;;;;;;3.83;2.97;;;;;;;26.35;46.39;101731.59;4987138;28;20093;-78
2022/07/24 10:16:11;;;;;;;4.10;3.00;;;;;;;26.46;46.38;101731.00;4986224;28;20454;-78
2022/07/24 10:18:53;;;;;;;3.75;3.30;;;;;;;26.53;46.99;101724.84;5003048;28;20064;-81
2022/07/24 10:21:24;;;;;;;6.00;3.40;;;;;;;26.65;46.41;101731.16;4989496;28;20030;-83
2022/07/24 10:24:06;;;;;;;5.18;3.15;;;;;;;26.76;45.47;101730.50;4991172;28;20058;-83
2022/07/24 10:26:40;;;;;;;4.22;3.25;;;;;;;26.62;45.98;101739.56;4986687;28;20088;-79
2022/07/24 10:29:24;;;;;;;4.43;3.30;;;;;;;26.76;46.05;101738.47;4987644;28;20065;-80
2022/07/24 10:31:52;;;;;;;6.07;3.33;;;;;;;26.65;46.09;101736.47;4991055;28;20101;-82
2022/07/24 10:34:24;;;;;;;3.90;3.00;;;;;;;26.84;45.37;101732.09;4990773;28;20041;-78
2022/07/24 10:37:01;;;;;;;4.40;3.00;;;;;;;26.95;45.35;101729.63;5001930;28;20038;-81
2022/07/24 10:39:38;;;;;;;4.47;3.15;;;;;;;27.09;44.39;101730.41;4986709;28;20041;-79
2022/07/24 10:42:06;;;;;;;4.55;3.20;;;;;;;26.85;44.42;101729.25;4990617;28;20026;-80
2022/07/24 10:44:32;;;;;;;4.28;3.22;;;;;;;27.13;43.89;101722.81;4990680;28;20022;-86
2022/07/24 10:47:05;;;;;;;4.53;3.03;;;;;;;27.20;43.88;101720.91;4990982;28;20105;-80
2022/07/24 10:49:45;;;;;;;4.68;3.40;;;;;;;27.29;43.92;101722.28;4995459;28;20270;-79
2022/07/24 10:52:23;;;;;;;4.60;3.20;;;;;;;27.47;44.76;101717.06;4988548;28;20045;-79
2022/07/24 10:55:26;;;;;;;4.35;3.10;;;;;;;27.44;44.97;101712.16;4990314;28;20030;-80
2022/07/24 10:58:04;;;;;;;4.47;3.25;;;;;;;27.51;44.07;101704.91;4984025;28;20665;-81
2022/07/24 11:00:36;;;;;;;5.47;3.20;;;;;;;27.50;43.35;101705.16;4988853;28;20031;-80
2022/07/24 11:03:06;;;;;;;4.00;3.10;;;;;;;27.58;42.42;101709.38;4987816;28;20491;-80
2022/07/24 11:05:34;;;;;;;5.13;3.00;;;;;;;27.72;42.25;101708.28;4990153;28;20029;-81
2022/07/24 11:08:13;;;;;;;3.95;2.85;;;;;;;27.51;44.46;101707.59;4989640;28;20019;-79
2022/07/24 11:10:54;;;;;;;4.40;3.25;;;;;;;27.64;44.99;101701.38;5004769;28;20030;-81
2022/07/24 11:13:32;;;;;;;3.85;2.90;;;;;;;27.56;44.23;101695.47;4989167;28;20054;-80
2022/07/24 11:16:09;;;;;;;4.03;2.90;;;;;;;27.49;43.62;101685.69;4988208;28;20092;-80